sensor_id;sensor_type;location;lat;lon;timestamp;pressure;altitude;pressure_sealevel;temperature;humidity
60433;BME280;46286;48.098;11.590;2023-04-02T00:05:22;94703.50;;;6.36;100.00
60433;BME280;46286;48.098;11.590;2023-04-02T00:08:22;94706.38;;;6.34;100.00
60433;BME280;46286;48.098;11.590;2023-04-02T00:10:56;94714.22;;;6.39;100.00
60433;BME280;46286;48.098;11.590;2023-04-02T00:15:49;94705.59;;;6.44;100.00
60433;BME280;46286;48.098;11.590;2023-04-02T00:18:18;94716.06;;;6.34;100.00
60433;BME280;46286;48.098;11.590;2023-04-02T00:21:07;94714.22;;;6.29;100.00
60433;BME280;46286;48.098;11.590;2023-04-02T00:23:37;94713.69;;;6.22;100.00
60433;BME280;46286;48.098;11.590;2023-04-02T00:26:07;94712.91;;;6.21;100.00
60433;BME280;46286;48.098;11.590;2023-04-02T00:28:46;94715.78;;;6.20;100.00
60433;BME280;46286;48.098;11.590;2023-04-02T00:31:12;94719.97;;;6.16;100.00
60433;BME280;46286;48.098;11.590;2023-04-02T00:33:37;94721.00;;;6.20;100.00
60433;BME280;46286;48.098;11.590;2023-04-02T00:36:07;94715.78;;;6.20;100.00
60433;BME280;46286;48.098;11.590;2023-04-02T00:38:34;94724.13;;;6.12;100.00
60433;BME280;46286;48.098;11.590;2023-04-02T00:41:05;94717.88;;;6.13;100.00
60433;BME280;46286;48.098;11.590;2023-04-02T00:43:35;94717.84;;;6.07;100.00
60433;BME280;46286;48.098;11.590;2023-04-02T00:46:03;94726.22;;;6.10;100.00
60433;BME280;46286;48.098;11.590;2023-04-02T00:51:23;94724.69;;;6.14;100.00
60433;BME280;46286;48.098;11.590;2023-04-02T00:53:52;94724.94;;;6.12;100.00
60433;BME280;46286;48.098;11.590;2023-04-02T00:56:41;94726.22;;;6.04;100.00
60433;BME280;46286;48.098;11.590;2023-04-02T00:59:18;94726.22;;;6.10;100.00
60433;BME280;46286;48.098;11.590;2023-04-02T01:01:51;94730.94;;;6.13;100.00
60433;BME280;46286;48.098;11.590;2023-04-02T01:04:33;94731.47;;;6.10;100.00
60433;BME280;46286;48.098;11.590;2023-04-02T01:07:04;94729.91;;;6.14;100.00
60433;BME280;46286;48.098;11.590;2023-04-02T01:12:26;94730.69;;;6.19;100.00
60433;BME280;46286;48.098;11.590;2023-04-02T01:15:07;94734.59;;;6.22;100.00
60433;BME280;46286;48.098;11.590;2023-04-02T01:20:28;94734.06;;;6.15;100.00
60433;BME280;46286;48.098;11.590;2023-04-02T01:23:05;94731.47;;;6.20;100.00
60433;BME280;46286;48.098;11.590;2023-04-02T01:30:46;94737.75;;;6.14;100.00
60433;BME280;46286;48.098;11.590;2023-04-02T01:33:13;94735.63;;;6.16;100.00
60433;BME280;46286;48.098;11.590;2023-04-02T01:35:42;94745.03;;;6.12;100.00
60433;BME280;46286;48.098;11.590;2023-04-02T01:38:16;94740.31;;;6.09;100.00
60433;BME280;46286;48.098;11.590;2023-04-02T01:41:11;94740.63;;;6.12;100.00
60433;BME280;46286;48.098;11.590;2023-04-02T01:43:43;94741.09;;;6.09;100.00
60433;BME280;46286;48.098;11.590;2023-04-02T01:46:26;94738.75;;;6.07;100.00
60433;BME280;46286;48.098;11.590;2023-04-02T01:48:53;94751.06;;;6.12;100.00
60433;BME280;46286;48.098;11.590;2023-04-02T01:51:31;94748.72;;;6.11;100.00
60433;BME280;46286;48.098;11.590;2023-04-02T01:54:00;94753.38;;;6.09;100.00
60433;BME280;46286;48.098;11.590;2023-04-02T01:56:27;94752.88;;;6.06;100.00
60433;BME280;46286;48.098;11.590;2023-04-02T01:58:54;94756.53;;;6.05;100.00
60433;BME280;46286;48.098;11.590;2023-04-02T02:01:22;94758.09;;;6.06;100.00
60433;BME280;46286;48.098;11.590;2023-04-02T02:03:50;94764.88;;;6.07;100.00
60433;BME280;46286;48.098;11.590;2023-04-02T02:06:17;94758.88;;;6.07;100.00
60433;BME280;46286;48.098;11.590;2023-04-02T02:08:53;94768.56;;;6.06;100.00
60433;BME280;46286;48.098;11.590;2023-04-02T02:11:25;94763.31;;;6.06;100.00
60433;BME280;46286;48.098;11.590;2023-04-02T02:14:00;94771.66;;;5.98;100.00
60433;BME280;46286;48.098;11.590;2023-04-02T02:16:27;94771.09;;;5.91;100.00
60433;BME280;46286;48.098;11.590;2023-04-02T02:18:59;94769.56;;;6.00;100.00
60433;BME280;46286;48.098;11.590;2023-04-02T02:21:50;94769.84;;;6.04;100.00
60433;BME280;46286;48.098;11.590;2023-04-02T02:24:22;94770.88;;;5.98;100.00
60433;BME280;46286;48.098;11.590;2023-04-02T02:29:25;94773.50;;;6.03;100.00
60433;BME280;46286;48.098;11.590;2023-04-02T02:31:54;94774.28;;;6.03;100.00
60433;BME280;46286;48.098;11.590;2023-04-02T02:34:24;94779.53;;;6.03;100.00
60433;BME280;46286;48.098;11.590;2023-04-02T02:37:23;94785.78;;;6.07;100.00
60433;BME280;46286;48.098;11.590;2023-04-02T02:39:54;94789.16;;;6.03;100.00
60433;BME280;46286;48.098;11.590;2023-04-02T02:42:32;94788.91;;;5.99;100.00
60433;BME280;46286;48.098;11.590;2023-04-02T02:45:01;94784.75;;;6.03;100.00
60433;BME280;46286;48.098;11.590;2023-04-02T02:47:32;94789.69;;;6.00;100.00
60433;BME280;46286;48.098;11.590;2023-04-02T02:50:02;94799.34;;;5.99;100.00
60433;BME280;46286;48.098;11.590;2023-04-02T02:52:34;94789.44;;;6.01;100.00
60433;BME280;46286;48.098;11.590;2023-04-02T02:55:05;94790.19;;;6.02;100.00
60433;BME280;46286;48.098;11.590;2023-04-02T02:57:38;94797.81;;;6.03;100.00
60433;BME280;46286;48.098;11.590;2023-04-02T03:00:05;94798.31;;;6.05;100.00
60433;BME280;46286;48.098;11.590;2023-04-02T03:02:36;94802.47;;;6.01;100.00
60433;BME280;46286;48.098;11.590;2023-04-02T03:05:03;94805.13;;;6.06;100.00
60433;BME280;46286;48.098;11.590;2023-04-02T03:07:30;94811.13;;;6.07;100.00
60433;BME280;46286;48.098;11.590;2023-04-02T03:13:04;94808.22;;;5.98;100.00
60433;BME280;46286;48.098;11.590;2023-04-02T03:18:11;94812.69;;;5.98;100.00
60433;BME280;46286;48.098;11.590;2023-04-02T03:20:48;94821.31;;;6.03;100.00
60433;BME280;46286;48.098;11.590;2023-04-02T03:23:20;94803.50;;;5.95;100.00
60433;BME280;46286;48.098;11.590;2023-04-02T03:26:14;94813.44;;;5.98;100.00
60433;BME280;46286;48.098;11.590;2023-04-02T03:28:56;94819.72;;;5.97;100.00
60433;BME280;46286;48.098;11.590;2023-04-02T03:31:40;94822.81;;;5.94;100.00
60433;BME280;46286;48.098;11.590;2023-04-02T03:36:39;94819.13;;;5.90;100.00
60433;BME280;46286;48.098;11.590;2023-04-02T03:41:43;94824.94;;;5.97;100.00
60433;BME280;46286;48.098;11.590;2023-04-02T03:44:30;94831.41;;;5.95;100.00
60433;BME280;46286;48.098;11.590;2023-04-02T03:49:58;94841.09;;;5.89;100.00
60433;BME280;46286;48.098;11.590;2023-04-02T03:52:26;94839.50;;;5.88;100.00
60433;BME280;46286;48.098;11.590;2023-04-02T03:54:54;94845.28;;;5.95;100.00
60433;BME280;46286;48.098;11.590;2023-04-02T03:57:30;94840.56;;;5.92;100.00
60433;BME280;46286;48.098;11.590;2023-04-02T04:00:16;94841.09;;;5.94;100.00
60433;BME280;46286;48.098;11.590;2023-04-02T04:02:48;94846.56;;;5.93;100.00
60433;BME280;46286;48.098;11.590;2023-04-02T04:05:23;94846.81;;;5.91;100.00
60433;BME280;46286;48.098;11.590;2023-04-02T04:07:51;94851.00;;;5.92;100.00
60433;BME280;46286;48.098;11.590;2023-04-02T04:10:23;94849.44;;;5.91;100.00
60433;BME280;46286;48.098;11.590;2023-04-02T04:12:52;94858.56;;;5.88;100.00
60433;BME280;46286;48.098;11.590;2023-04-02T04:15:23;94861.19;;;5.94;100.00
60433;BME280;46286;48.098;11.590;2023-04-02T04:20:39;94855.69;;;5.85;100.00
60433;BME280;46286;48.098;11.590;2023-04-02T04:23:18;94864.81;;;5.87;100.00
60433;BME280;46286;48.098;11.590;2023-04-02T04:25:44;94861.94;;;5.84;100.00
60433;BME280;46286;48.098;11.590;2023-04-02T04:31:21;94858.22;;;5.69;100.00
60433;BME280;46286;48.098;11.590;2023-04-02T04:33:56;94881.25;;;5.78;100.00
60433;BME280;46286;48.098;11.590;2023-04-02T04:36:34;94881.72;;;5.75;100.00
60433;BME280;46286;48.098;11.590;2023-04-02T04:39:12;94888.53;;;5.76;100.00
60433;BME280;46286;48.098;11.590;2023-04-02T04:41:41;94887.47;;;5.71;100.00
60433;BME280;46286;48.098;11.590;2023-04-02T04:44:41;94888.25;;;5.72;100.00
60433;BME280;46286;48.098;11.590;2023-04-02T04:47:19;94889.56;;;5.69;100.00
60433;BME280;46286;48.098;11.590;2023-04-02T04:52:38;94895.53;;;5.70;100.00
60433;BME280;46286;48.098;11.590;2023-04-02T04:55:28;94904.44;;;5.69;100.00
60433;BME280;46286;48.098;11.590;2023-04-02T04:58:00;94908.34;;;5.71;100.00
60433;BME280;46286;48.098;11.590;2023-04-02T05:00:57;94909.88;;;5.62;100.00
60433;BME280;46286;48.098;11.590;2023-04-02T05:03:33;94917.72;;;5.62;100.00
60433;BME280;46286;48.098;11.590;2023-04-02T05:06:43;94914.06;;;5.63;100.00
60433;BME280;46286;48.098;11.590;2023-04-02T05:09:17;94914.31;;;5.62;100.00
60433;BME280;46286;48.098;11.590;2023-04-02T05:11:50;94930.75;;;5.62;100.00
60433;BME280;46286;48.098;11.590;2023-04-02T05:14:24;94935.19;;;5.62;100.00
60433;BME280;46286;48.098;11.590;2023-04-02T05:19:33;94937.50;;;5.58;100.00
60433;BME280;46286;48.098;11.590;2023-04-02T05:22:19;94937.00;;;5.61;100.00
60433;BME280;46286;48.098;11.590;2023-04-02T05:25:06;94936.47;;;5.59;100.00
60433;BME280;46286;48.098;11.590;2023-04-02T05:28:00;94939.66;;;5.66;100.00
60433;BME280;46286;48.098;11.590;2023-04-02T05:33:00;94945.38;;;5.63;100.00
60433;BME280;46286;48.098;11.590;2023-04-02T05:35:33;94953.22;;;5.63;100.00
60433;BME280;46286;48.098;11.590;2023-04-02T05:38:00;94952.91;;;5.60;100.00
60433;BME280;46286;48.098;11.590;2023-04-02T05:40:39;94960.53;;;5.66;100.00
60433;BME280;46286;48.098;11.590;2023-04-02T05:43:08;94959.00;;;5.70;100.00
60433;BME280;46286;48.098;11.590;2023-04-02T05:45:36;94964.50;;;5.74;100.00
60433;BME280;46286;48.098;11.590;2023-04-02T05:48:21;94967.88;;;5.75;100.00
60433;BME280;46286;48.098;11.590;2023-04-02T05:50:52;94977.03;;;5.77;100.00
60433;BME280;46286;48.098;11.590;2023-04-02T05:53:25;94975.25;;;5.78;100.00
60433;BME280;46286;48.098;11.590;2023-04-02T05:55:57;94976.78;;;5.73;100.00
60433;BME280;46286;48.098;11.590;2023-04-02T05:58:36;94978.09;;;5.76;100.00
60433;BME280;46286;48.098;11.590;2023-04-02T06:03:43;94987.19;;;5.68;100.00
60433;BME280;46286;48.098;11.590;2023-04-02T06:09:34;94976.78;;;5.73;100.00
60433;BME280;46286;48.098;11.590;2023-04-02T06:12:25;94982.25;;;5.72;100.00
60433;BME280;46286;48.098;11.590;2023-04-02T06:14:53;94992.19;;;5.75;100.00
60433;BME280;46286;48.098;11.590;2023-04-02T06:17:19;94991.94;;;5.82;100.00
60433;BME280;46286;48.098;11.590;2023-04-02T06:19:46;94999.78;;;5.82;100.00
60433;BME280;46286;48.098;11.590;2023-04-02T06:22:18;94993.53;;;5.83;100.00
60433;BME280;46286;48.098;11.590;2023-04-02T06:24:49;94991.47;;;5.85;100.00
60433;BME280;46286;48.098;11.590;2023-04-02T06:27:18;94998.56;;;5.89;100.00
60433;BME280;46286;48.098;11.590;2023-04-02T06:29:49;94999.84;;;5.87;100.00
60433;BME280;46286;48.098;11.590;2023-04-02T06:32:19;94998.25;;;5.86;100.00
60433;BME280;46286;48.098;11.590;2023-04-02T06:34:47;95004.03;;;5.93;100.00
60433;BME280;46286;48.098;11.590;2023-04-02T06:37:19;95002.50;;;5.92;100.00
60433;BME280;46286;48.098;11.590;2023-04-02T06:39:46;95006.22;;;6.01;100.00
60433;BME280;46286;48.098;11.590;2023-04-02T06:42:27;95005.63;;;5.94;100.00
60433;BME280;46286;48.098;11.590;2023-04-02T06:44:55;95015.88;;;6.01;100.00
60433;BME280;46286;48.098;11.590;2023-04-02T06:50:28;95020.41;;;6.11;100.00
60433;BME280;46286;48.098;11.590;2023-04-02T06:52:58;95030.28;;;6.03;100.00
60433;BME280;46286;48.098;11.590;2023-04-02T06:55:52;95032.41;;;6.12;100.00
60433;BME280;46286;48.098;11.590;2023-04-02T06:58:20;95029.81;;;6.17;100.00
60433;BME280;46286;48.098;11.590;2023-04-02T07:00:47;95033.25;;;6.22;100.00
60433;BME280;46286;48.098;11.590;2023-04-02T07:03:25;95035.06;;;6.22;100.00
60433;BME280;46286;48.098;11.590;2023-04-02T07:05:52;95042.38;;;6.20;100.00
60433;BME280;46286;48.098;11.590;2023-04-02T07:08:18;95033.25;;;6.22;100.00
60433;BME280;46286;48.098;11.590;2023-04-02T07:10:44;95051.28;;;6.24;100.00
60433;BME280;46286;48.098;11.590;2023-04-02T07:13:15;95049.25;;;6.36;100.00
60433;BME280;46286;48.098;11.590;2023-04-02T07:15:43;95051.94;;;6.47;100.00
60433;BME280;46286;48.098;11.590;2023-04-02T07:18:29;95061.41;;;6.58;100.00
60433;BME280;46286;48.098;11.590;2023-04-02T07:20:55;95059.81;;;6.57;100.00
60433;BME280;46286;48.098;11.590;2023-04-02T07:23:20;95061.41;;;6.58;100.00
60433;BME280;46286;48.098;11.590;2023-04-02T07:25:51;95063.56;;;6.71;100.00
60433;BME280;46286;48.098;11.590;2023-04-02T07:28:17;95064.88;;;6.74;100.00
60433;BME280;46286;48.098;11.590;2023-04-02T07:30:44;95065.69;;;6.80;100.00
60433;BME280;46286;48.098;11.590;2023-04-02T07:33:12;95065.13;;;6.78;100.00
60433;BME280;46286;48.098;11.590;2023-04-02T07:35:39;95072.53;;;6.96;100.00
60433;BME280;46286;48.098;11.590;2023-04-02T07:38:05;95070.69;;;6.91;100.00
60433;BME280;46286;48.098;11.590;2023-04-02T07:40:30;95071.56;;;7.13;100.00
60433;BME280;46286;48.098;11.590;2023-04-02T07:42:56;95084.09;;;7.10;100.00
60433;BME280;46286;48.098;11.590;2023-04-02T07:45:21;95080.44;;;7.17;100.00
60433;BME280;46286;48.098;11.590;2023-04-02T07:47:47;95083.56;;;7.14;100.00
60433;BME280;46286;48.098;11.590;2023-04-02T07:50:13;95086.19;;;7.08;100.00
60433;BME280;46286;48.098;11.590;2023-04-02T07:52:40;95097.13;;;7.00;100.00
60433;BME280;46286;48.098;11.590;2023-04-02T07:55:11;95093.00;;;7.15;100.00
60433;BME280;46286;48.098;11.590;2023-04-02T07:57:38;95101.91;;;7.24;100.00
60433;BME280;46286;48.098;11.590;2023-04-02T08:00:10;95097.25;;;7.36;100.00
60433;BME280;46286;48.098;11.590;2023-04-02T08:02:36;95098.28;;;7.30;100.00
60433;BME280;46286;48.098;11.590;2023-04-02T08:05:02;95103.53;;;7.30;100.00
60433;BME280;46286;48.098;11.590;2023-04-02T08:07:27;95106.13;;;7.35;100.00
60433;BME280;46286;48.098;11.590;2023-04-02T08:09:53;95110.06;;;7.27;100.00
60433;BME280;46286;48.098;11.590;2023-04-02T08:12:18;95112.94;;;7.36;100.00
60433;BME280;46286;48.098;11.590;2023-04-02T08:14:44;95109.81;;;7.39;100.00
60433;BME280;46286;48.098;11.590;2023-04-02T08:17:10;95117.69;;;7.50;100.00
60433;BME280;46286;48.098;11.590;2023-04-02T08:19:35;95121.41;;;7.79;100.00
60433;BME280;46286;48.098;11.590;2023-04-02T08:22:01;95115.66;;;7.88;100.00
60433;BME280;46286;48.098;11.590;2023-04-02T08:24:27;95116.16;;;7.90;100.00
60433;BME280;46286;48.098;11.590;2023-04-02T08:26:53;95119.56;;;7.95;100.00
60433;BME280;46286;48.098;11.590;2023-04-02T08:29:20;95117.47;;;7.77;100.00
60433;BME280;46286;48.098;11.590;2023-04-02T08:31:45;95114.09;;;8.18;100.00
60433;BME280;46286;48.098;11.590;2023-04-02T08:34:11;95117.22;;;8.25;100.00
60433;BME280;46286;48.098;11.590;2023-04-02T08:36:38;95127.69;;;8.30;100.00
60433;BME280;46286;48.098;11.590;2023-04-02T08:39:07;95116.13;;;8.41;100.00
60433;BME280;46286;48.098;11.590;2023-04-02T08:41:41;95121.41;;;8.57;100.00
60433;BME280;46286;48.098;11.590;2023-04-02T08:46:47;95137.66;;;8.07;100.00
60433;BME280;46286;48.098;11.590;2023-04-02T08:49:28;95142.09;;;8.17;100.00
60433;BME280;46286;48.098;11.590;2023-04-02T08:51:55;95132.41;;;8.33;100.00
60433;BME280;46286;48.098;11.590;2023-04-02T08:54:24;95137.41;;;8.45;100.00
60433;BME280;46286;48.098;11.590;2023-04-02T08:57:10;95135.31;;;8.47;100.00
60433;BME280;46286;48.098;11.590;2023-04-02T08:59:42;95140.81;;;8.51;100.00
60433;BME280;46286;48.098;11.590;2023-04-02T09:02:42;95143.16;;;8.37;100.00
60433;BME280;46286;48.098;11.590;2023-04-02T09:05:27;95150.75;;;8.64;100.00
60433;BME280;46286;48.098;11.590;2023-04-02T09:07:57;95146.56;;;8.37;100.00
60433;BME280;46286;48.098;11.590;2023-04-02T09:10:38;95151.84;;;8.22;100.00
60433;BME280;46286;48.098;11.590;2023-04-02T09:13:17;95141.84;;;8.55;100.00
60433;BME280;46286;48.098;11.590;2023-04-02T09:15:45;95152.34;;;8.60;100.00
60433;BME280;46286;48.098;11.590;2023-04-02T09:18:15;95159.97;;;8.56;100.00
60433;BME280;46286;48.098;11.590;2023-04-02T09:20:42;95151.66;;;9.14;100.00
60433;BME280;46286;48.098;11.590;2023-04-02T09:23:16;95161.16;;;9.00;100.00
60433;BME280;46286;48.098;11.590;2023-04-02T09:25:46;95155.38;;;9.08;100.00
60433;BME280;46286;48.098;11.590;2023-04-02T09:28:12;95168.00;;;8.96;100.00
60433;BME280;46286;48.098;11.590;2023-04-02T09:33:49;95176.34;;;9.18;100.00
60433;BME280;46286;48.098;11.590;2023-04-02T09:39:17;95179.41;;;9.41;100.00
60433;BME280;46286;48.098;11.590;2023-04-02T09:41:45;95176.91;;;9.65;100.00
60433;BME280;46286;48.098;11.590;2023-04-02T09:46:36;95186.66;;;9.60;100.00
60433;BME280;46286;48.098;11.590;2023-04-02T09:49:02;95185.38;;;9.52;100.00
60433;BME280;46286;48.098;11.590;2023-04-02T09:51:32;95178.31;;;9.47;100.00
60433;BME280;46286;48.098;11.590;2023-04-02T09:56:35;95179.22;;;9.72;100.00
60433;BME280;46286;48.098;11.590;2023-04-02T09:59:10;95186.25;;;9.32;100.00
60433;BME280;46286;48.098;11.590;2023-04-02T10:01:40;95186.19;;;9.52;100.00
60433;BME280;46286;48.098;11.590;2023-04-02T10:07:01;95186.41;;;10.06;100.00
60433;BME280;46286;48.098;11.590;2023-04-02T10:09:34;95191.13;;;10.04;100.00
60433;BME280;46286;48.098;11.590;2023-04-02T10:12:02;95191.25;;;9.83;100.00
60433;BME280;46286;48.098;11.590;2023-04-02T10:14:36;95189.25;;;9.65;100.00
60433;BME280;46286;48.098;11.590;2023-04-02T10:17:12;95196.09;;;9.66;100.00
60433;BME280;46286;48.098;11.590;2023-04-02T10:19:42;95193.03;;;9.43;100.00
60433;BME280;46286;48.098;11.590;2023-04-02T10:22:15;95197.91;;;9.70;100.00
60433;BME280;46286;48.098;11.590;2023-04-02T10:24:41;95203.41;;;9.74;100.00
60433;BME280;46286;48.098;11.590;2023-04-02T10:30:21;95197.19;;;9.60;100.00
60433;BME280;46286;48.098;11.590;2023-04-02T10:33:10;95194.25;;;9.66;100.00
60433;BME280;46286;48.098;11.590;2023-04-02T10:35:52;95202.44;;;9.54;100.00
60433;BME280;46286;48.098;11.590;2023-04-02T10:41:30;95201.84;;;9.73;100.00
60433;BME280;46286;48.098;11.590;2023-04-02T10:44:24;95192.25;;;9.93;100.00
60433;BME280;46286;48.098;11.590;2023-04-02T10:47:17;95198.44;;;10.12;100.00
60433;BME280;46286;48.098;11.590;2023-04-02T10:50:03;95199.09;;;10.33;100.00
60433;BME280;46286;48.098;11.590;2023-04-02T10:52:37;95199.34;;;10.96;100.00
60433;BME280;46286;48.098;11.590;2023-04-02T10:55:14;95209.56;;;11.26;100.00
60433;BME280;46286;48.098;11.590;2023-04-02T10:57:42;95204.81;;;11.29;100.00
60433;BME280;46286;48.098;11.590;2023-04-02T11:02:51;95203.22;;;11.71;100.00
60433;BME280;46286;48.098;11.590;2023-04-02T11:08:10;95210.28;;;12.00;94.25
60433;BME280;46286;48.098;11.590;2023-04-02T11:10:45;95206.56;;;12.72;85.59
60433;BME280;46286;48.098;11.590;2023-04-02T11:13:31;95191.66;;;13.09;87.32
60433;BME280;46286;48.098;11.590;2023-04-02T11:16:01;95198.91;;;13.45;79.15
60433;BME280;46286;48.098;11.590;2023-04-02T11:18:33;95200.47;;;12.71;80.42
60433;BME280;46286;48.098;11.590;2023-04-02T11:21:35;95208.06;;;12.26;86.97
60433;BME280;46286;48.098;11.590;2023-04-02T11:23:57;95208.66;;;12.37;93.37
60433;BME280;46286;48.098;11.590;2023-04-02T11:26:40;95209.38;;;12.61;86.88
60433;BME280;46286;48.098;11.590;2023-04-02T11:29:13;95219.22;;;12.37;86.94
60433;BME280;46286;48.098;11.590;2023-04-02T11:31:40;95216.69;;;11.93;91.03
60433;BME280;46286;48.098;11.590;2023-04-02T11:34:11;95223.09;;;11.63;95.37
60433;BME280;46286;48.098;11.590;2023-04-02T11:39:44;95225.69;;;10.96;100.00
60433;BME280;46286;48.098;11.590;2023-04-02T11:44:42;95227.00;;;11.22;100.00
60433;BME280;46286;48.098;11.590;2023-04-02T11:52:34;95237.88;;;11.40;100.00
60433;BME280;46286;48.098;11.590;2023-04-02T11:55:14;95245.03;;;11.58;100.00
60433;BME280;46286;48.098;11.590;2023-04-02T11:57:48;95236.22;;;11.68;100.00
60433;BME280;46286;48.098;11.590;2023-04-02T12:00:39;95243.28;;;11.73;100.00
60433;BME280;46286;48.098;11.590;2023-04-02T12:03:35;95239.03;;;11.29;100.00
60433;BME280;46286;48.098;11.590;2023-04-02T12:06:17;95240.84;;;10.80;100.00
60433;BME280;46286;48.098;11.590;2023-04-02T12:11:39;95243.41;;;11.63;100.00
60433;BME280;46286;48.098;11.590;2023-04-02T12:14:42;95250.44;;;12.68;100.00
60433;BME280;46286;48.098;11.590;2023-04-02T12:19:52;95244.00;;;11.35;100.00
60433;BME280;46286;48.098;11.590;2023-04-02T12:22:26;95247.91;;;11.38;100.00
60433;BME280;46286;48.098;11.590;2023-04-02T12:24:57;95249.03;;;11.32;100.00
60433;BME280;46286;48.098;11.590;2023-04-02T12:27:26;95249.47;;;11.63;100.00
60433;BME280;46286;48.098;11.590;2023-04-02T12:29:53;95253.25;;;11.76;97.64
60433;BME280;46286;48.098;11.590;2023-04-02T12:32:23;95244.53;;;11.56;100.00
60433;BME280;46286;48.098;11.590;2023-04-02T12:34:50;95247.22;;;12.00;100.00
60433;BME280;46286;48.098;11.590;2023-04-02T12:37:25;95250.97;;;13.30;91.19
60433;BME280;46286;48.098;11.590;2023-04-02T12:39:54;95244.72;;;13.54;81.90
60433;BME280;46286;48.098;11.590;2023-04-02T12:42:34;95244.44;;;15.11;67.64
60433;BME280;46286;48.098;11.590;2023-04-02T12:45:01;95242.16;;;12.55;82.32
60433;BME280;46286;48.098;11.590;2023-04-02T12:47:28;95255.72;;;12.68;90.65
60433;BME280;46286;48.098;11.590;2023-04-02T12:49:55;95251.03;;;12.26;91.63
60433;BME280;46286;48.098;11.590;2023-04-02T12:52:24;95261.91;;;11.82;100.00
60433;BME280;46286;48.098;11.590;2023-04-02T12:54:58;95275.47;;;11.21;100.00
60433;BME280;46286;48.098;11.590;2023-04-02T12:59:53;95276.47;;;10.67;100.00
60433;BME280;46286;48.098;11.590;2023-04-02T13:02:22;95278.97;;;10.03;100.00
60433;BME280;46286;48.098;11.590;2023-04-02T13:04:50;95278.03;;;9.68;100.00
60433;BME280;46286;48.098;11.590;2023-04-02T13:07:17;95276.88;;;9.95;100.00
60433;BME280;46286;48.098;11.590;2023-04-02T13:09:55;95284.78;;;9.89;100.00
60433;BME280;46286;48.098;11.590;2023-04-02T13:12:36;95282.16;;;9.95;100.00
60433;BME280;46286;48.098;11.590;2023-04-02T13:15:17;95280.66;;;9.73;100.00
60433;BME280;46286;48.098;11.590;2023-04-02T13:17:46;95277.09;;;9.43;100.00
60433;BME280;46286;48.098;11.590;2023-04-02T13:20:34;95288.13;;;9.40;100.00
60433;BME280;46286;48.098;11.590;2023-04-02T13:25:46;95289.72;;;9.41;100.00
60433;BME280;46286;48.098;11.590;2023-04-02T13:28:12;95296.06;;;9.14;100.00
60433;BME280;46286;48.098;11.590;2023-04-02T13:30:38;95301.31;;;9.14;100.00
60433;BME280;46286;48.098;11.590;2023-04-02T13:33:03;95299.19;;;9.16;100.00
60433;BME280;46286;48.098;11.590;2023-04-02T13:35:29;95294.97;;;9.21;100.00
60433;BME280;46286;48.098;11.590;2023-04-02T13:37:55;95302.38;;;8.77;100.00
60433;BME280;46286;48.098;11.590;2023-04-02T13:40:20;95305.53;;;8.74;100.00
60433;BME280;46286;48.098;11.590;2023-04-02T13:42:47;95302.91;;;8.64;100.00
60433;BME280;46286;48.098;11.590;2023-04-02T13:45:21;95304.41;;;8.34;100.00
60433;BME280;46286;48.098;11.590;2023-04-02T13:47:47;95304.47;;;8.49;100.00
60433;BME280;46286;48.098;11.590;2023-04-02T13:50:19;95303.41;;;8.51;100.00
60433;BME280;46286;48.098;11.590;2023-04-02T13:52:46;95308.66;;;8.51;100.00
60433;BME280;46286;48.098;11.590;2023-04-02T13:55:12;95308.16;;;8.54;100.00
60433;BME280;46286;48.098;11.590;2023-04-02T13:57:39;95303.63;;;8.39;100.00
60433;BME280;46286;48.098;11.590;2023-04-02T14:00:06;95303.09;;;8.37;100.00
60433;BME280;46286;48.098;11.590;2023-04-02T14:02:32;95304.94;;;8.36;100.00
60433;BME280;46286;48.098;11.590;2023-04-02T14:08:05;95319.69;;;8.58;100.00
60433;BME280;46286;48.098;11.590;2023-04-02T14:16:17;95326.00;;;8.72;100.00
60433;BME280;46286;48.098;11.590;2023-04-02T14:18:58;95328.09;;;9.11;100.00
60433;BME280;46286;48.098;11.590;2023-04-02T14:21:39;95325.75;;;8.99;100.00
60433;BME280;46286;48.098;11.590;2023-04-02T14:24:21;95336.47;;;8.46;100.00
60433;BME280;46286;48.098;11.590;2023-04-02T14:26:58;95337.91;;;8.11;100.00
60433;BME280;46286;48.098;11.590;2023-04-02T14:29:30;95346.75;;;7.95;100.00
60433;BME280;46286;48.098;11.590;2023-04-02T14:32:05;95357.22;;;7.90;100.00
60433;BME280;46286;48.098;11.590;2023-04-02T14:34:54;95350.91;;;7.86;100.00
60433;BME280;46286;48.098;11.590;2023-04-02T14:37:32;95350.34;;;7.78;100.00
60433;BME280;46286;48.098;11.590;2023-04-02T14:42:46;95354.25;;;7.71;100.00
60433;BME280;46286;48.098;11.590;2023-04-02T14:48:08;95354.34;;;7.43;100.00
60433;BME280;46286;48.098;11.590;2023-04-02T14:50:39;95359.75;;;7.69;100.00
60433;BME280;46286;48.098;11.590;2023-04-02T14:53:17;95359.09;;;7.46;100.00
60433;BME280;46286;48.098;11.590;2023-04-02T14:55:47;95361.75;;;7.52;100.00
60433;BME280;46286;48.098;11.590;2023-04-02T14:58:21;95364.25;;;7.36;100.00
60433;BME280;46286;48.098;11.590;2023-04-02T15:00:58;95371.19;;;7.58;100.00
60433;BME280;46286;48.098;11.590;2023-04-02T15:03:31;95373.78;;;7.53;100.00
60433;BME280;46286;48.098;11.590;2023-04-02T15:05:59;95375.88;;;7.51;100.00
60433;BME280;46286;48.098;11.590;2023-04-02T15:08:29;95373.28;;;7.56;100.00
60433;BME280;46286;48.098;11.590;2023-04-02T15:13:37;95377.41;;;7.41;100.00
60433;BME280;46286;48.098;11.590;2023-04-02T15:16:14;95385.78;;;7.43;100.00
60433;BME280;46286;48.098;11.590;2023-04-02T15:18:40;95381.97;;;7.61;100.00
60433;BME280;46286;48.098;11.590;2023-04-02T15:24:08;95389.56;;;7.63;100.00
60433;BME280;46286;48.098;11.590;2023-04-02T15:32:23;95393.72;;;7.59;100.00
60433;BME280;46286;48.098;11.590;2023-04-02T15:41:03;95407.19;;;7.35;100.00